createdAt,value
2022-11-25T00:01:34.301Z,30.77
2022-11-25T00:06:34.525Z,28.53
2022-11-25T00:11:35.029Z,31.83
2022-11-25T00:16:34.472Z,33.43
2022-11-25T00:21:34.876Z,31.33
2022-11-25T00:26:34.158Z,28.80
2022-11-25T00:31:38.601Z,30.37
2022-11-25T00:36:38.490Z,27.87
2022-11-25T00:41:53.937Z,25.83
2022-11-25T00:46:53.354Z,33.67
2022-11-25T00:51:51.655Z,28.50
2022-11-25T00:56:49.705Z,32.40
2022-11-25T01:01:48.145Z,36.10
2022-11-25T01:06:47.713Z,39.67
2022-11-25T01:11:46.325Z,35.00
2022-11-25T01:16:44.395Z,39.80
2022-11-25T01:21:42.928Z,49.10
2022-11-25T01:26:45.224Z,38.47
2022-11-25T01:31:43.714Z,38.07
2022-11-25T01:36:42.601Z,50.43
2022-11-25T01:41:40.647Z,41.20
2022-11-25T01:47:06.507Z,43.60
2022-11-25T01:52:10.565Z,48.67
2022-11-25T01:57:13.409Z,45.93
2022-11-25T02:02:14.286Z,43.80
2022-11-25T02:07:16.585Z,55.20
2022-11-25T02:12:17.476Z,59.60
2022-11-25T02:17:16.910Z,57.23
2022-11-25T02:22:23.069Z,54.97
2022-11-25T02:27:22.550Z,55.13
2022-11-25T02:32:23.581Z,62.60
2022-11-25T02:37:23.980Z,45.47
2022-11-25T02:42:25.226Z,53.03
2022-11-25T02:47:23.285Z,42.97
2022-11-25T02:52:21.847Z,46.30
2022-11-25T02:57:19.986Z,48.23
2022-11-25T03:02:19.887Z,47.63
2022-11-25T03:07:18.000Z,45.73
2022-11-25T03:12:22.553Z,40.90
2022-11-25T03:17:25.623Z,44.37
2022-11-25T03:22:25.702Z,43.43
2022-11-25T03:27:23.766Z,39.80
2022-11-25T03:32:22.057Z,31.30
2022-11-25T03:37:21.602Z,38.10
2022-11-25T03:42:19.785Z,32.70
2022-11-25T03:47:18.012Z,29.10
2022-11-25T03:52:16.830Z,29.20
2022-11-25T03:57:16.502Z,32.50
2022-11-25T04:02:15.190Z,42.90
2022-11-25T04:07:13.272Z,38.13
2022-11-25T04:12:29.925Z,36.53
2022-11-25T04:17:37.988Z,35.80
2022-11-25T04:22:37.514Z,33.43
2022-11-25T04:27:37.330Z,31.67
2022-11-25T04:32:38.020Z,29.80
2022-11-25T04:37:38.181Z,29.37
2022-11-25T04:42:36.830Z,29.63
2022-11-25T04:47:40.026Z,33.37
2022-11-25T04:52:38.342Z,29.10
2022-11-25T04:57:36.418Z,28.10
2022-11-25T05:02:36.095Z,27.87
2022-11-25T05:07:45.461Z,27.37
2022-11-25T05:12:45.077Z,29.90
2022-11-25T05:17:47.436Z,31.70
2022-11-25T05:22:50.847Z,34.70
2022-11-25T05:27:52.488Z,30.40
2022-11-25T05:32:50.575Z,33.07
2022-11-25T05:37:50.984Z,32.10
2022-11-25T05:42:49.125Z,31.37
2022-11-25T05:47:48.523Z,31.60
2022-11-25T05:52:52.540Z,38.00
2022-11-25T05:57:50.756Z,32.50
2022-11-25T06:02:51.155Z,29.70
2022-11-25T06:07:52.139Z,29.10
2022-11-25T06:12:53.635Z,37.30
2022-11-25T06:17:52.010Z,42.13
2022-11-25T06:22:56.401Z,39.03
2022-11-25T06:28:12.862Z,38.63
2022-11-25T06:33:14.268Z,35.33
2022-11-25T06:38:16.914Z,47.10
2022-11-25T06:43:14.958Z,41.90
2022-11-25T06:48:12.991Z,37.17
2022-11-25T06:53:11.057Z,35.53
2022-11-25T06:58:34.339Z,37.60
2022-11-25T07:03:28.497Z,31.23
2022-11-25T07:08:30.921Z,36.93
2022-11-25T07:13:33.645Z,46.77
2022-11-25T07:18:33.252Z,43.10
2022-11-25T07:23:31.302Z,39.80
2022-11-25T07:28:29.358Z,35.50
2022-11-25T07:33:28.799Z,30.50
2022-11-25T07:38:28.584Z,36.77
2022-11-25T07:43:26.661Z,36.40
2022-11-25T07:48:24.774Z,35.57
2022-11-25T07:53:24.185Z,34.73
2022-11-25T07:58:22.433Z,25.93
2022-11-25T08:03:20.586Z,30.20
2022-11-25T08:08:18.695Z,26.17
2022-11-25T08:13:18.120Z,26.10
2022-11-25T08:18:16.300Z,26.10
2022-11-25T08:23:14.324Z,31.80
2022-11-25T08:28:12.371Z,27.47
2022-11-25T08:33:11.857Z,29.13
2022-11-25T08:38:12.345Z,24.23
2022-11-25T08:43:10.414Z,25.63
2022-11-25T08:48:08.561Z,20.60
2022-11-25T08:53:08.001Z,23.00
2022-11-25T08:58:09.929Z,21.40
2022-11-25T09:03:08.385Z,23.23
2022-11-25T09:08:09.306Z,24.77
2022-11-25T09:13:07.603Z,19.87
2022-11-25T09:18:08.023Z,18.60
2022-11-25T09:23:08.661Z,19.43
2022-11-25T09:28:06.872Z,24.07
2022-11-25T09:33:05.032Z,19.97
2022-11-25T09:38:03.108Z,19.50
2022-11-25T09:43:33.977Z,20.53
2022-11-25T09:48:48.269Z,17.67
2022-11-25T09:53:52.039Z,17.53
2022-11-25T09:58:56.760Z,26.80
2022-11-25T10:03:59.434Z,37.27
2022-11-25T10:08:59.928Z,23.50
2022-11-25T10:14:04.290Z,27.30
2022-11-25T10:19:06.816Z,21.87
2022-11-25T10:24:05.547Z,21.47
2022-11-25T10:29:29.243Z,24.37
2022-11-25T10:34:33.406Z,21.40
2022-11-25T10:39:34.834Z,24.90
2022-11-25T10:44:36.586Z,22.47
2022-11-25T10:49:44.700Z,25.90
2022-11-25T10:54:42.970Z,23.00
2022-11-25T10:59:42.833Z,22.20
2022-11-25T11:04:55.325Z,22.90
2022-11-25T11:09:53.646Z,22.43
2022-11-25T11:14:53.484Z,21.13
2022-11-25T11:20:02.968Z,18.30
2022-11-25T11:25:08.465Z,19.80
2022-11-25T11:30:15.247Z,17.63
2022-11-25T11:35:21.947Z,19.03
2022-11-25T11:40:36.583Z,18.40
2022-11-25T11:45:54.147Z,23.43
2022-11-25T11:50:53.865Z,20.07
2022-11-25T11:56:33.641Z,23.60
2022-11-25T12:01:38.033Z,19.90
2022-11-25T12:06:39.360Z,16.93
2022-11-25T12:11:41.357Z,22.43
2022-11-25T12:16:46.637Z,21.20
2022-11-25T12:21:52.453Z,20.27
2022-11-25T12:26:56.768Z,22.43
2022-11-25T12:32:03.634Z,32.83
2022-11-25T12:37:14.669Z,36.30
2022-11-25T12:42:18.796Z,32.00
2022-11-25T12:47:18.270Z,30.13
2022-11-25T12:52:43.364Z,35.67
2022-11-25T12:58:25.557Z,41.17
2022-11-25T13:03:41.252Z,32.80
2022-11-25T13:08:56.860Z,34.03
2022-11-25T13:14:00.382Z,35.90
2022-11-25T13:19:00.011Z,37.27
2022-11-25T13:23:59.045Z,32.73
2022-11-25T13:28:57.876Z,34.37
2022-11-25T13:34:25.205Z,32.57
2022-11-25T13:39:32.246Z,30.23
2022-11-25T13:44:34.970Z,35.13
2022-11-25T13:49:43.886Z,29.47
2022-11-25T13:54:46.854Z,32.80
2022-11-25T13:59:56.554Z,39.43
2022-11-25T14:05:01.070Z,35.43
2022-11-25T14:10:12.820Z,38.00
2022-11-25T14:15:33.614Z,43.13
2022-11-25T14:20:44.496Z,39.70
2022-11-25T14:25:50.606Z,51.70
2022-11-25T14:30:53.787Z,45.53
2022-11-25T14:35:56.546Z,43.87
2022-11-25T14:41:00.040Z,54.37
2022-11-25T14:46:16.556Z,52.87
2022-11-25T14:51:18.498Z,48.60
2022-11-25T14:56:22.183Z,49.13
2022-11-25T15:01:23.503Z,51.60
2022-11-25T15:06:22.921Z,45.60
2022-11-25T15:11:24.156Z,48.73
2022-11-25T15:16:24.607Z,45.10
2022-11-25T15:21:29.544Z,48.13
2022-11-25T15:26:29.250Z,45.70
2022-11-25T15:31:30.371Z,52.30
2022-11-25T15:36:30.347Z,58.03
2022-11-25T15:41:34.329Z,49.00
2022-11-25T15:46:35.888Z,52.50
2022-11-25T15:51:42.600Z,50.40
2022-11-25T15:56:45.140Z,50.83
2022-11-25T16:01:43.245Z,49.93
2022-11-25T16:06:55.776Z,46.93
2022-11-25T16:11:53.827Z,50.87
2022-11-25T16:16:52.352Z,51.67
2022-11-25T16:22:00.731Z,56.90
2022-11-25T16:27:01.256Z,59.30
2022-11-25T16:31:59.714Z,48.70
2022-11-25T16:36:59.194Z,48.63
2022-11-25T16:42:01.500Z,51.73
2022-11-25T16:46:59.972Z,50.07
2022-11-25T16:51:59.535Z,45.43
2022-11-25T16:56:57.730Z,43.43
2022-11-25T17:01:55.939Z,49.63
2022-11-25T17:07:30.636Z,44.50
2022-11-25T17:12:19.023Z,42.50
2022-11-25T17:17:24.395Z,45.60
2022-11-25T17:22:24.882Z,41.10
2022-11-25T17:27:28.400Z,43.70
2022-11-25T17:32:27.281Z,48.40
2022-11-25T17:37:26.205Z,52.03
2022-11-25T17:42:29.600Z,44.30
2022-11-25T17:47:27.832Z,50.23
2022-11-25T17:52:25.880Z,43.37
2022-11-25T17:57:29.062Z,37.30
2022-11-25T18:02:27.540Z,39.57
2022-11-25T18:07:25.692Z,33.87
2022-11-25T18:12:30.522Z,32.93
2022-11-25T18:17:28.593Z,35.77
2022-11-25T18:22:26.649Z,34.70
2022-11-25T18:27:28.065Z,31.80
2022-11-25T18:32:26.724Z,33.17
2022-11-25T18:37:24.806Z,34.57
2022-11-25T18:42:27.601Z,37.20
2022-11-25T18:47:25.790Z,36.37
2022-11-25T18:52:23.994Z,27.80
2022-11-25T18:57:22.172Z,29.17
2022-11-25T19:02:21.640Z,29.70
2022-11-25T19:07:19.818Z,31.80
2022-11-25T19:12:21.286Z,25.30
2022-11-25T19:17:24.201Z,28.03
2022-11-25T19:22:24.418Z,28.80
2022-11-25T19:27:25.005Z,27.00
2022-11-25T19:32:27.421Z,33.33
2022-11-25T19:37:27.274Z,27.80
2022-11-25T19:42:25.775Z,24.23
2022-11-25T19:47:27.563Z,31.80
2022-11-25T19:52:31.676Z,30.43
2022-11-25T19:57:29.750Z,29.07
2022-11-25T20:02:30.580Z,36.20
2022-11-25T20:07:29.994Z,30.73
2022-11-25T20:12:29.704Z,29.53
2022-11-25T20:17:32.360Z,33.33
2022-11-25T20:22:35.977Z,26.90
2022-11-25T20:27:34.179Z,31.13
2022-11-25T20:32:34.000Z,21.03
2022-11-25T20:37:40.389Z,21.60
2022-11-25T20:42:38.448Z,24.00
2022-11-25T20:47:38.339Z,20.47
2022-11-25T20:52:36.376Z,23.87
2022-11-25T20:57:36.347Z,20.47
2022-11-25T21:02:34.505Z,18.37
2022-11-25T21:07:34.766Z,21.53
2022-11-25T21:12:32.839Z,18.23
2022-11-25T21:17:30.906Z,18.33
2022-11-25T21:22:28.952Z,21.53
2022-11-25T21:27:29.080Z,18.80
2022-11-25T21:32:28.393Z,17.90
2022-11-25T21:37:30.827Z,16.97
2022-11-25T21:42:33.318Z,18.80
2022-11-25T21:47:31.453Z,19.70
2022-11-25T21:52:29.503Z,19.27
2022-11-25T21:57:29.071Z,19.23
2022-11-25T22:02:28.520Z,16.63
2022-11-25T22:07:30.819Z,19.80
2022-11-25T22:12:30.968Z,24.00
2022-11-25T22:17:31.227Z,18.20
2022-11-25T22:22:29.339Z,18.03
2022-11-25T22:27:36.099Z,16.47
2022-11-25T22:32:35.561Z,18.10
2022-11-25T22:37:34.865Z,16.63
2022-11-25T22:42:33.975Z,14.77
2022-11-25T22:47:38.333Z,16.30
2022-11-25T22:52:37.310Z,16.47
2022-11-25T22:57:35.314Z,19.17
2022-11-25T23:02:36.988Z,18.93
2022-11-25T23:07:35.151Z,29.33
2022-11-25T23:12:33.241Z,22.60
2022-11-25T23:17:31.275Z,19.23
2022-11-25T23:22:30.692Z,19.53
2022-11-25T23:27:28.741Z,22.33
2022-11-25T23:32:26.832Z,22.10
2022-11-25T23:37:24.918Z,29.87
2022-11-25T23:42:24.309Z,29.03
2022-11-25T23:47:23.930Z,28.30
2022-11-25T23:52:26.598Z,32.53
2022-11-25T23:57:30.810Z,28.03
